createdAt,value
2023-07-03T00:00:18.506Z,94334.00
2023-07-03T00:01:18.626Z,94332.00
2023-07-03T00:02:20.219Z,94332.00
2023-07-03T00:03:18.506Z,94332.00
2023-07-03T00:04:18.568Z,94334.00
2023-07-03T00:05:18.565Z,94334.00
2023-07-03T00:06:18.511Z,94334.00
2023-07-03T00:07:18.487Z,94336.00
2023-07-03T00:08:18.498Z,94334.00
2023-07-03T00:09:18.467Z,94334.00
2023-07-03T00:10:18.504Z,94330.00
2023-07-03T00:11:18.461Z,94330.00
2023-07-03T00:12:18.477Z,94326.00
2023-07-03T00:13:18.550Z,94330.00
2023-07-03T00:14:18.460Z,94328.00
2023-07-03T00:15:18.432Z,94330.00
2023-07-03T00:16:18.492Z,94330.00
2023-07-03T00:17:18.461Z,94330.00
2023-07-03T00:18:18.433Z,94328.00
2023-07-03T00:19:18.539Z,94328.00
2023-07-03T00:20:18.417Z,94328.00
2023-07-03T00:21:18.386Z,94330.00
2023-07-03T00:22:18.411Z,94330.00
2023-07-03T00:23:18.431Z,94328.00
2023-07-03T00:24:18.394Z,94332.00
2023-07-03T00:25:18.369Z,94334.00
2023-07-03T00:26:18.381Z,94332.00
2023-07-03T00:27:18.347Z,94334.00
2023-07-03T00:28:18.353Z,94336.00
2023-07-03T00:29:18.341Z,94338.00
2023-07-03T00:30:18.349Z,94340.00
2023-07-03T00:31:18.361Z,94336.00
2023-07-03T00:32:18.339Z,94340.00
2023-07-03T00:33:18.323Z,94340.00
2023-07-03T00:34:18.318Z,94340.00
2023-07-03T00:35:18.311Z,94342.00
2023-07-03T00:36:18.312Z,94340.00
2023-07-03T00:37:18.342Z,94338.00
2023-07-03T00:38:18.297Z,94338.00
2023-07-03T00:39:18.276Z,94338.00
2023-07-03T00:40:18.290Z,94336.00
2023-07-03T00:41:18.255Z,94336.00
2023-07-03T00:42:18.272Z,94336.00
2023-07-03T00:43:18.237Z,94334.00
2023-07-03T00:44:18.273Z,94334.00
2023-07-03T00:45:18.223Z,94334.00
2023-07-03T00:46:18.256Z,94336.00
2023-07-03T00:47:18.245Z,94332.00
2023-07-03T00:48:18.196Z,94334.00
2023-07-03T00:49:18.202Z,94332.00
2023-07-03T00:50:18.220Z,94334.00
2023-07-03T00:51:18.188Z,94332.00
2023-07-03T00:52:18.241Z,94332.00
2023-07-03T00:53:18.168Z,94334.00
2023-07-03T00:54:18.172Z,94330.00
2023-07-03T00:55:18.157Z,94332.00
2023-07-03T00:56:18.172Z,94332.00
2023-07-03T00:57:18.210Z,94332.00
2023-07-03T00:58:18.139Z,94332.00
2023-07-03T00:59:18.134Z,94332.00
2023-07-03T01:00:18.114Z,94334.00
2023-07-03T01:01:18.141Z,94334.00
2023-07-03T01:02:18.129Z,94332.00
2023-07-03T01:03:18.123Z,94338.00
2023-07-03T01:04:18.190Z,94336.00
2023-07-03T01:05:18.236Z,94336.00
2023-07-03T01:06:18.107Z,94336.00
2023-07-03T01:07:18.084Z,94338.00
2023-07-03T01:08:18.089Z,94338.00
2023-07-03T01:09:18.095Z,94340.00
2023-07-03T01:10:18.077Z,94340.00
2023-07-03T01:11:18.054Z,94340.00
2023-07-03T01:12:18.056Z,94340.00
2023-07-03T01:13:18.054Z,94342.00
2023-07-03T01:14:18.126Z,94338.00
2023-07-03T01:15:18.055Z,94342.00
2023-07-03T01:16:18.109Z,94340.00
2023-07-03T01:17:18.015Z,94338.00
2023-07-03T01:18:18.021Z,94340.00
2023-07-03T01:19:18.007Z,94340.00
2023-07-03T01:20:18.009Z,94338.00
2023-07-03T01:21:18.045Z,94340.00
2023-07-03T01:22:17.989Z,94342.00
2023-07-03T01:23:18.010Z,94340.00
2023-07-03T01:24:17.983Z,94342.00
2023-07-03T01:25:17.964Z,94342.00
2023-07-03T01:26:17.972Z,94340.00
2023-07-03T01:27:17.994Z,94340.00
2023-07-03T01:28:17.956Z,94340.00
2023-07-03T01:29:17.958Z,94342.00
2023-07-03T01:30:17.937Z,94344.00
2023-07-03T01:31:17.970Z,94344.00
2023-07-03T01:32:17.934Z,94344.00
2023-07-03T01:33:17.915Z,94344.00
2023-07-03T01:34:17.910Z,94344.00
2023-07-03T01:35:17.922Z,94342.00
2023-07-03T01:36:17.935Z,94342.00
2023-07-03T01:37:17.902Z,94344.00
2023-07-03T01:38:17.902Z,94344.00
2023-07-03T01:39:17.927Z,94346.00
2023-07-03T01:40:17.876Z,94346.00
2023-07-03T01:41:17.948Z,94350.00
2023-07-03T01:42:17.932Z,94352.00
2023-07-03T01:43:17.854Z,94352.00
2023-07-03T01:44:17.838Z,94354.00
2023-07-03T01:45:17.845Z,94352.00
2023-07-03T01:46:17.859Z,94354.00
2023-07-03T01:47:17.872Z,94350.00
2023-07-03T01:48:17.840Z,94354.00
2023-07-03T01:49:17.839Z,94350.00
2023-07-03T01:50:17.807Z,94352.00
2023-07-03T01:51:17.799Z,94352.00
2023-07-03T01:52:17.811Z,94356.00
2023-07-03T01:53:17.819Z,94352.00
2023-07-03T01:54:17.781Z,94350.00
2023-07-03T01:55:17.806Z,94352.00
2023-07-03T01:56:17.800Z,94352.00
2023-07-03T01:57:17.786Z,94354.00
2023-07-03T01:58:17.799Z,94356.00
2023-07-03T01:59:17.780Z,94354.00
2023-07-03T02:00:17.765Z,94352.00
2023-07-03T02:01:17.828Z,94352.00
2023-07-03T02:02:17.837Z,94350.00
2023-07-03T02:03:17.902Z,94350.00
2023-07-03T02:04:17.880Z,94344.00
2023-07-03T02:05:17.828Z,94350.00
2023-07-03T02:06:17.847Z,94344.00
2023-07-03T02:07:17.855Z,94344.00
2023-07-03T02:08:17.868Z,94344.00
2023-07-03T02:09:17.860Z,94342.00
2023-07-03T02:10:17.907Z,94344.00
2023-07-03T02:11:17.903Z,94344.00
2023-07-03T02:12:17.901Z,94344.00
2023-07-03T02:13:17.929Z,94342.00
2023-07-03T02:14:17.929Z,94344.00
2023-07-03T02:15:17.945Z,94346.00
2023-07-03T02:16:17.976Z,94346.00
2023-07-03T02:17:17.980Z,94346.00
2023-07-03T02:18:17.957Z,94346.00
2023-07-03T02:19:17.986Z,94346.00
2023-07-03T02:20:17.990Z,94348.00
2023-07-03T02:21:18.010Z,94348.00
2023-07-03T02:22:17.992Z,94348.00
2023-07-03T02:23:18.000Z,94348.00
2023-07-03T02:24:18.080Z,94348.00
2023-07-03T02:25:18.065Z,94348.00
2023-07-03T02:26:18.066Z,94348.00
2023-07-03T02:27:18.065Z,94346.00
2023-07-03T02:28:18.072Z,94346.00
2023-07-03T02:29:18.086Z,94346.00
2023-07-03T02:30:18.103Z,94342.00
2023-07-03T02:31:18.175Z,94346.00
2023-07-03T02:32:18.126Z,94342.00
2023-07-03T02:33:18.116Z,94344.00
2023-07-03T02:34:18.152Z,94344.00
2023-07-03T02:35:18.140Z,94346.00
2023-07-03T02:36:18.165Z,94344.00
2023-07-03T02:37:18.181Z,94346.00
2023-07-03T02:38:18.185Z,94346.00
2023-07-03T02:39:18.213Z,94346.00
2023-07-03T02:40:18.215Z,94346.00
2023-07-03T02:41:18.219Z,94348.00
2023-07-03T02:42:18.259Z,94350.00
2023-07-03T02:43:18.260Z,94348.00
2023-07-03T02:44:18.279Z,94350.00
2023-07-03T02:45:18.299Z,94352.00
2023-07-03T02:46:18.293Z,94352.00
2023-07-03T02:47:18.345Z,94352.00
2023-07-03T02:48:18.360Z,94348.00
2023-07-03T02:49:18.325Z,94352.00
2023-07-03T02:50:18.337Z,94350.00
2023-07-03T02:51:18.340Z,94350.00
2023-07-03T02:52:18.410Z,94350.00
2023-07-03T02:53:18.362Z,94350.00
2023-07-03T02:54:18.412Z,94346.00
2023-07-03T02:55:18.418Z,94348.00
2023-07-03T02:56:18.421Z,94348.00
2023-07-03T02:57:18.431Z,94348.00
2023-07-03T02:58:18.467Z,94344.00
2023-07-03T02:59:18.465Z,94344.00
2023-07-03T03:00:18.474Z,94340.00
2023-07-03T03:01:18.552Z,94342.00
2023-07-03T03:02:18.541Z,94340.00
2023-07-03T03:03:18.591Z,94342.00
2023-07-03T03:04:18.567Z,94340.00
2023-07-03T03:05:18.550Z,94340.00
2023-07-03T03:06:18.564Z,94342.00
2023-07-03T03:07:18.595Z,94342.00
2023-07-03T03:08:18.653Z,94342.00
2023-07-03T03:09:18.593Z,94344.00
2023-07-03T03:10:18.607Z,94342.00
2023-07-03T03:11:18.631Z,94342.00
2023-07-03T03:12:18.647Z,94340.00
2023-07-03T03:13:18.649Z,94344.00
2023-07-03T03:14:18.682Z,94342.00
2023-07-03T03:15:18.679Z,94342.00
2023-07-03T03:16:18.709Z,94340.00
2023-07-03T03:17:18.719Z,94340.00
2023-07-03T03:18:18.748Z,94342.00
2023-07-03T03:19:18.756Z,94342.00
2023-07-03T03:20:18.750Z,94342.00
2023-07-03T03:21:18.813Z,94342.00
2023-07-03T03:22:18.849Z,94340.00
2023-07-03T03:23:18.801Z,94342.00
2023-07-03T03:24:18.861Z,94342.00
2023-07-03T03:25:18.854Z,94342.00
2023-07-03T03:26:18.863Z,94340.00
2023-07-03T03:27:18.866Z,94344.00
2023-07-03T03:28:18.882Z,94346.00
2023-07-03T03:29:18.916Z,94342.00
2023-07-03T03:30:18.939Z,94342.00
2023-07-03T03:31:19.145Z,94346.00
2023-07-03T03:32:19.012Z,94346.00
2023-07-03T03:33:18.981Z,94350.00
2023-07-03T03:34:18.993Z,94350.00
2023-07-03T03:35:18.988Z,94350.00
2023-07-03T03:36:19.037Z,94350.00
2023-07-03T03:37:19.029Z,94350.00
2023-07-03T03:38:19.036Z,94352.00
2023-07-03T03:39:19.061Z,94354.00
2023-07-03T03:40:19.067Z,94354.00
2023-07-03T03:41:19.099Z,94354.00
2023-07-03T03:42:19.117Z,94356.00
2023-07-03T03:43:19.161Z,94357.00
2023-07-03T03:44:19.183Z,94357.00
2023-07-03T03:45:19.230Z,94357.00
2023-07-03T03:46:19.202Z,94354.00
2023-07-03T03:47:19.298Z,94357.00
2023-07-03T03:48:19.346Z,94356.00
2023-07-03T03:49:19.237Z,94357.00
2023-07-03T03:50:19.291Z,94354.00
2023-07-03T03:51:19.309Z,94354.00
2023-07-03T03:52:19.356Z,94354.00
2023-07-03T03:53:19.314Z,94356.00
2023-07-03T03:54:19.332Z,94356.00
2023-07-03T03:55:19.374Z,94357.00
2023-07-03T03:56:19.375Z,94359.00
2023-07-03T03:57:19.390Z,94359.00
2023-07-03T03:58:19.414Z,94363.00
2023-07-03T03:59:19.425Z,94361.00
2023-07-03T04:00:19.444Z,94361.00
2023-07-03T04:01:19.526Z,94363.00
2023-07-03T04:02:19.495Z,94361.00
2023-07-03T04:03:19.500Z,94361.00
2023-07-03T04:04:19.573Z,94359.00
2023-07-03T04:05:19.610Z,94363.00
2023-07-03T04:06:19.573Z,94361.00
2023-07-03T04:07:19.589Z,94357.00
2023-07-03T04:08:19.617Z,94359.00
2023-07-03T04:09:19.622Z,94361.00
2023-07-03T04:10:19.664Z,94361.00
2023-07-03T04:11:19.660Z,94361.00
2023-07-03T04:12:19.685Z,94363.00
2023-07-03T04:13:19.741Z,94371.00
2023-07-03T04:14:19.714Z,94371.00
2023-07-03T04:15:19.754Z,94373.00
2023-07-03T04:16:19.803Z,94373.00
2023-07-03T04:17:19.802Z,94377.00
2023-07-03T04:18:19.796Z,94375.00
2023-07-03T04:19:19.828Z,94379.00
2023-07-03T04:20:19.844Z,94379.00
2023-07-03T04:21:19.888Z,94379.00
2023-07-03T04:22:19.941Z,94381.00
2023-07-03T04:23:19.911Z,94381.00
2023-07-03T04:24:19.908Z,94383.00
2023-07-03T04:25:19.945Z,94385.00
2023-07-03T04:26:19.968Z,94385.00
2023-07-03T04:27:19.955Z,94385.00
2023-07-03T04:28:19.994Z,94385.00
2023-07-03T04:29:20.014Z,94385.00
2023-07-03T04:30:20.022Z,94383.00
2023-07-03T04:31:20.064Z,94381.00
2023-07-03T04:32:20.079Z,94383.00
2023-07-03T04:33:20.074Z,94381.00
2023-07-03T04:34:20.104Z,94379.00
2023-07-03T04:35:20.175Z,94379.00
2023-07-03T04:36:20.116Z,94379.00
2023-07-03T04:37:20.140Z,94379.00
2023-07-03T04:38:20.186Z,94379.00
2023-07-03T04:39:20.186Z,94377.00
2023-07-03T04:40:20.208Z,94379.00
2023-07-03T04:41:20.253Z,94379.00
2023-07-03T04:42:20.231Z,94377.00
2023-07-03T04:43:20.253Z,94377.00
2023-07-03T04:44:20.290Z,94375.00
2023-07-03T04:45:20.317Z,94375.00
2023-07-03T04:46:20.341Z,94375.00
2023-07-03T04:47:20.381Z,94375.00
2023-07-03T04:48:20.381Z,94371.00
2023-07-03T04:49:20.370Z,94373.00
2023-07-03T04:50:20.410Z,94363.00
2023-07-03T04:51:20.438Z,94363.00
2023-07-03T04:52:20.453Z,94375.00
2023-07-03T04:53:20.449Z,94377.00
2023-07-03T04:54:20.472Z,94375.00
2023-07-03T04:55:20.511Z,94363.00
2023-07-03T04:56:20.519Z,94377.00
2023-07-03T04:57:20.544Z,94379.00
2023-07-03T04:58:20.558Z,94377.00
2023-07-03T04:59:20.577Z,94379.00
2023-07-03T05:00:20.633Z,94379.00
2023-07-03T05:01:20.663Z,94379.00
2023-07-03T05:02:20.666Z,94379.00
2023-07-03T05:03:20.780Z,94381.00
2023-07-03T05:04:20.830Z,94381.00
2023-07-03T05:05:20.708Z,94381.00
2023-07-03T05:06:20.720Z,94383.00
2023-07-03T05:07:20.732Z,94385.00
2023-07-03T05:08:20.745Z,94385.00
2023-07-03T05:09:20.786Z,94387.00
2023-07-03T05:10:20.812Z,94387.00
2023-07-03T05:11:20.829Z,94387.00
2023-07-03T05:12:20.818Z,94387.00
2023-07-03T05:13:20.846Z,94389.00
2023-07-03T05:14:20.852Z,94387.00
2023-07-03T05:15:20.877Z,94383.00
2023-07-03T05:16:20.948Z,94383.00
2023-07-03T05:17:20.941Z,94385.00
2023-07-03T05:18:20.983Z,94385.00
2023-07-03T05:19:20.968Z,94383.00
2023-07-03T05:20:20.960Z,94385.00
2023-07-03T05:21:20.998Z,94387.00
2023-07-03T05:22:20.998Z,94385.00
2023-07-03T05:23:21.046Z,94389.00
2023-07-03T05:24:21.022Z,94387.00
2023-07-03T05:25:21.017Z,94383.00
2023-07-03T05:26:21.613Z,94387.00
2023-07-03T05:27:21.062Z,94385.00
2023-07-03T05:28:21.070Z,94385.00
2023-07-03T05:29:21.100Z,94385.00
2023-07-03T05:30:21.099Z,94385.00
2023-07-03T05:31:21.183Z,94387.00
2023-07-03T05:32:21.140Z,94385.00
2023-07-03T05:33:21.132Z,94383.00
2023-07-03T05:34:21.156Z,94383.00
2023-07-03T05:35:21.160Z,94385.00
2023-07-03T05:36:21.560Z,94383.00
2023-07-03T05:37:21.147Z,94385.00
2023-07-03T05:38:21.196Z,94391.00
2023-07-03T05:39:21.207Z,94387.00
2023-07-03T05:40:21.211Z,94385.00
2023-07-03T05:41:21.270Z,94385.00
2023-07-03T05:42:21.313Z,94383.00
2023-07-03T05:43:21.335Z,94387.00
2023-07-03T05:44:21.356Z,94387.00
2023-07-03T05:45:21.358Z,94389.00
2023-07-03T05:46:21.399Z,94389.00
2023-07-03T05:47:21.497Z,94389.00
2023-07-03T05:48:21.423Z,94391.00
2023-07-03T05:49:21.444Z,94393.00
2023-07-03T05:50:21.446Z,94393.00
2023-07-03T05:51:21.499Z,94399.00
2023-07-03T05:52:21.488Z,94395.00
2023-07-03T05:53:22.662Z,94399.00
2023-07-03T05:54:21.542Z,94401.00
2023-07-03T05:55:21.500Z,94399.00
2023-07-03T05:56:21.516Z,94401.00
2023-07-03T05:57:21.505Z,94402.00
2023-07-03T05:58:21.482Z,94404.00
2023-07-03T05:59:21.483Z,94408.00
2023-07-03T06:00:21.469Z,94406.00
2023-07-03T06:01:21.543Z,94406.00
2023-07-03T06:02:21.599Z,94408.00
2023-07-03T06:03:21.640Z,94408.00
2023-07-03T06:04:21.478Z,94408.00
2023-07-03T06:05:21.455Z,94408.00
2023-07-03T06:06:21.499Z,94408.00
2023-07-03T06:07:21.506Z,94406.00
2023-07-03T06:08:21.429Z,94399.00
2023-07-03T06:09:21.456Z,94399.00
2023-07-03T06:10:21.423Z,94397.00
2023-07-03T06:11:21.411Z,94397.00
2023-07-03T06:12:21.395Z,94399.00
2023-07-03T06:13:21.462Z,94399.00
2023-07-03T06:14:21.372Z,94401.00
2023-07-03T06:15:21.372Z,94399.00
2023-07-03T06:16:21.399Z,94397.00
2023-07-03T06:17:21.454Z,94397.00
2023-07-03T06:18:21.466Z,94397.00
2023-07-03T06:19:21.349Z,94395.00
2023-07-03T06:20:21.343Z,94395.00
2023-07-03T06:21:21.375Z,94391.00
2023-07-03T06:22:21.310Z,94395.00
2023-07-03T06:23:21.300Z,94395.00
2023-07-03T06:24:21.383Z,94395.00
2023-07-03T06:25:21.326Z,94395.00
2023-07-03T06:26:21.313Z,94395.00
2023-07-03T06:27:21.307Z,94395.00
2023-07-03T06:28:21.260Z,94393.00
2023-07-03T06:29:21.371Z,94395.00
2023-07-03T06:30:21.338Z,94393.00
2023-07-03T06:31:21.435Z,94397.00
2023-07-03T06:32:21.472Z,94395.00
2023-07-03T06:33:21.515Z,94395.00
2023-07-03T06:34:21.566Z,94401.00
2023-07-03T06:35:21.716Z,94399.00
2023-07-03T06:36:21.644Z,94397.00
2023-07-03T06:37:21.695Z,94399.00
2023-07-03T06:38:21.769Z,94397.00
2023-07-03T06:39:21.788Z,94399.00
2023-07-03T06:40:21.883Z,94399.00
2023-07-03T06:41:21.894Z,94399.00
2023-07-03T06:42:21.972Z,94397.00
2023-07-03T06:43:22.071Z,94399.00
2023-07-03T06:44:22.105Z,94397.00
2023-07-03T06:45:22.098Z,94401.00
2023-07-03T06:46:22.263Z,94401.00
2023-07-03T06:47:22.229Z,94397.00
2023-07-03T06:48:22.253Z,94401.00
2023-07-03T06:49:22.307Z,94399.00
2023-07-03T06:50:22.322Z,94401.00
2023-07-03T06:51:22.378Z,94401.00
2023-07-03T06:52:22.416Z,94399.00
2023-07-03T06:53:22.481Z,94401.00
2023-07-03T06:54:22.500Z,94399.00
2023-07-03T06:55:22.592Z,94395.00
2023-07-03T06:56:22.654Z,94399.00
2023-07-03T06:57:22.662Z,94397.00
2023-07-03T06:58:22.697Z,94397.00
2023-07-03T06:59:22.798Z,94397.00
2023-07-03T07:00:22.775Z,94395.00
2023-07-03T07:01:22.799Z,94397.00
2023-07-03T07:02:22.933Z,94395.00
2023-07-03T07:03:22.974Z,94397.00
2023-07-03T07:04:22.946Z,94389.00
2023-07-03T07:05:22.990Z,94393.00
2023-07-03T07:06:22.988Z,94395.00
2023-07-03T07:07:23.085Z,94393.00
2023-07-03T07:08:23.055Z,94387.00
2023-07-03T07:09:23.116Z,94389.00
2023-07-03T07:10:23.147Z,94385.00
2023-07-03T07:11:23.219Z,94387.00
2023-07-03T07:12:23.271Z,94387.00
2023-07-03T07:13:23.315Z,94385.00
2023-07-03T07:14:23.370Z,94385.00
2023-07-03T07:15:23.541Z,94387.00
2023-07-03T07:16:23.501Z,94383.00
2023-07-03T07:17:25.984Z,94381.00
2023-07-03T07:18:24.593Z,94381.00
2023-07-03T07:19:23.534Z,94379.00
2023-07-03T07:20:23.551Z,94379.00
2023-07-03T07:21:23.547Z,94379.00
2023-07-03T07:22:23.528Z,94379.00
2023-07-03T07:23:23.523Z,94377.00
2023-07-03T07:24:23.535Z,94379.00
2023-07-03T07:25:23.514Z,94377.00
2023-07-03T07:26:23.500Z,94381.00
2023-07-03T07:27:23.489Z,94379.00
2023-07-03T07:28:23.543Z,94379.00
2023-07-03T07:29:23.583Z,94375.00
2023-07-03T07:30:23.705Z,94375.00
2023-07-03T07:31:23.949Z,94375.00
2023-07-03T07:32:23.800Z,94373.00
2023-07-03T07:33:23.882Z,94375.00
2023-07-03T07:34:23.875Z,94377.00
2023-07-03T07:35:23.932Z,94375.00
2023-07-03T07:36:24.006Z,94363.00
2023-07-03T07:37:24.079Z,94371.00
2023-07-03T07:38:24.094Z,94371.00
2023-07-03T07:39:24.172Z,94363.00
2023-07-03T07:40:24.201Z,94371.00
2023-07-03T07:41:24.608Z,94359.00
2023-07-03T07:42:24.296Z,94371.00
2023-07-03T07:43:24.325Z,94363.00
2023-07-03T07:44:24.375Z,94371.00
2023-07-03T07:45:24.425Z,94363.00
2023-07-03T07:46:24.544Z,94363.00
2023-07-03T07:47:24.603Z,94363.00
2023-07-03T07:48:25.170Z,94363.00
2023-07-03T07:49:24.587Z,94361.00
2023-07-03T07:50:24.655Z,94359.00
2023-07-03T07:51:24.704Z,94361.00
2023-07-03T07:52:24.728Z,94359.00
2023-07-03T07:53:24.762Z,94359.00
2023-07-03T07:54:24.789Z,94363.00
2023-07-03T07:55:24.908Z,94363.00
2023-07-03T07:56:24.839Z,94371.00
2023-07-03T07:57:24.868Z,94363.00
2023-07-03T07:58:24.878Z,94363.00
2023-07-03T07:59:24.872Z,94371.00
2023-07-03T08:00:24.891Z,94371.00
2023-07-03T08:01:24.996Z,94363.00
2023-07-03T08:02:25.099Z,94363.00
2023-07-03T08:03:25.026Z,94359.00
2023-07-03T08:04:25.048Z,94361.00
2023-07-03T08:05:24.975Z,94359.00
2023-07-03T08:06:24.965Z,94359.00
2023-07-03T08:07:24.990Z,94357.00
2023-07-03T08:08:24.972Z,94357.00
2023-07-03T08:09:24.981Z,94357.00
2023-07-03T08:10:25.016Z,94357.00
2023-07-03T08:11:24.962Z,94359.00
2023-07-03T08:12:25.016Z,94357.00
2023-07-03T08:13:25.027Z,94357.00
2023-07-03T08:14:25.100Z,94359.00
2023-07-03T08:15:25.097Z,94356.00
2023-07-03T08:16:25.249Z,94356.00
2023-07-03T08:17:25.123Z,94354.00
2023-07-03T08:18:25.189Z,94352.00
2023-07-03T08:19:25.334Z,94352.00
2023-07-03T08:20:25.262Z,94354.00
2023-07-03T08:21:25.636Z,94352.00
2023-07-03T08:22:25.273Z,94354.00
2023-07-03T08:23:25.304Z,94354.00
2023-07-03T08:24:25.320Z,94354.00
2023-07-03T08:25:25.338Z,94352.00
2023-07-03T08:26:25.377Z,94350.00
2023-07-03T08:27:25.398Z,94357.00
2023-07-03T08:28:25.425Z,94356.00
2023-07-03T08:29:25.440Z,94357.00
2023-07-03T08:30:25.496Z,94357.00
2023-07-03T08:31:25.540Z,94356.00
2023-07-03T08:32:25.564Z,94357.00
2023-07-03T08:33:25.718Z,94354.00
2023-07-03T08:34:25.610Z,94356.00
2023-07-03T08:37:25.677Z,94350.00
2023-07-03T08:38:25.652Z,94350.00
2023-07-03T08:39:25.681Z,94348.00
2023-07-03T08:40:25.647Z,94352.00
2023-07-03T08:41:25.639Z,94350.00
2023-07-03T08:42:25.760Z,94348.00
2023-07-03T08:43:25.644Z,94348.00
2023-07-03T08:44:25.620Z,94348.00
2023-07-03T08:45:25.622Z,94346.00
2023-07-03T08:46:25.738Z,94346.00
2023-07-03T08:47:25.739Z,94346.00
2023-07-03T08:48:25.580Z,94348.00
2023-07-03T08:49:25.596Z,94348.00
2023-07-03T08:50:36.704Z,94346.00
2023-07-03T08:51:26.715Z,94348.00
2023-07-03T08:52:25.562Z,94344.00
2023-07-03T08:53:25.553Z,94344.00
2023-07-03T08:54:25.527Z,94342.00
2023-07-03T08:55:25.536Z,94342.00
2023-07-03T08:56:25.543Z,94342.00
2023-07-03T08:57:25.540Z,94342.00
2023-07-03T08:58:25.526Z,94342.00
2023-07-03T08:59:25.492Z,94344.00
2023-07-03T09:00:25.505Z,94342.00
2023-07-03T09:01:25.596Z,94342.00
2023-07-03T09:02:25.521Z,94340.00
2023-07-03T09:03:25.554Z,94340.00
2023-07-03T09:04:25.572Z,94338.00
2023-07-03T09:05:25.525Z,94340.00
2023-07-03T09:06:25.545Z,94342.00
2023-07-03T09:07:25.636Z,94340.00
2023-07-03T09:08:25.604Z,94338.00
2023-07-03T09:09:25.677Z,94338.00
2023-07-03T09:10:25.680Z,94342.00
2023-07-03T09:11:26.172Z,94340.00
2023-07-03T09:12:25.724Z,94340.00
2023-07-03T09:13:25.746Z,94344.00
2023-07-03T09:14:25.797Z,94338.00
2023-07-03T09:15:25.804Z,94340.00
2023-07-03T09:16:26.203Z,94338.00
2023-07-03T09:17:25.913Z,94338.00
2023-07-03T09:18:25.916Z,94338.00
2023-07-03T09:19:25.958Z,94340.00
2023-07-03T09:20:25.958Z,94340.00
2023-07-03T09:21:26.020Z,94338.00
2023-07-03T09:22:26.010Z,94338.00
2023-07-03T09:23:26.111Z,94336.00
2023-07-03T09:24:26.056Z,94336.00
2023-07-03T09:25:26.124Z,94336.00
2023-07-03T09:26:26.150Z,94336.00
2023-07-03T09:27:26.664Z,94336.00
2023-07-03T09:28:26.233Z,94334.00
2023-07-03T09:29:27.165Z,94332.00
2023-07-03T09:30:26.223Z,94330.00
2023-07-03T09:31:26.298Z,94332.00
2023-07-03T09:32:26.369Z,94334.00
2023-07-03T09:33:26.535Z,94334.00
2023-07-03T09:34:26.305Z,94332.00
2023-07-03T09:35:26.794Z,94330.00
2023-07-03T09:36:26.364Z,94330.00
2023-07-03T09:37:26.374Z,94328.00
2023-07-03T09:38:27.118Z,94328.00
2023-07-03T09:39:26.508Z,94328.00
2023-07-03T09:40:26.555Z,94328.00
2023-07-03T09:41:26.537Z,94326.00
2023-07-03T09:42:26.575Z,94324.00
2023-07-03T09:43:26.605Z,94324.00
2023-07-03T09:44:26.638Z,94324.00
2023-07-03T09:45:26.671Z,94322.00
2023-07-03T09:46:26.681Z,94320.00
2023-07-03T09:47:27.686Z,94318.00
2023-07-03T09:48:26.873Z,94322.00
2023-07-03T09:49:26.828Z,94316.00
2023-07-03T09:50:26.891Z,94312.00
2023-07-03T09:51:26.986Z,94312.00
2023-07-03T09:52:27.563Z,94310.00
2023-07-03T09:53:27.007Z,94310.00
2023-07-03T09:54:27.094Z,94309.00
2023-07-03T09:55:27.175Z,94312.00
2023-07-03T09:56:27.712Z,94309.00
2023-07-03T09:57:27.228Z,94310.00
2023-07-03T09:58:27.273Z,94309.00
2023-07-03T09:59:27.280Z,94309.00
2023-07-03T10:00:27.315Z,94310.00
2023-07-03T10:06:27.699Z,94305.00
2023-07-03T10:07:27.773Z,94307.00
2023-07-03T10:08:30.238Z,94305.00
2023-07-03T10:11:27.450Z,94303.00
2023-07-03T10:12:27.351Z,94301.00
2023-07-03T10:13:27.266Z,94299.00
2023-07-03T10:14:27.249Z,94301.00
2023-07-03T10:15:27.260Z,94297.00
2023-07-03T10:16:27.257Z,94299.00
2023-07-03T10:17:27.389Z,94295.00
2023-07-03T10:18:27.268Z,94295.00
2023-07-03T10:19:27.288Z,94291.00
2023-07-03T10:20:28.472Z,94289.00
2023-07-03T10:21:27.248Z,94289.00
2023-07-03T10:22:27.237Z,94289.00
2023-07-03T10:23:27.277Z,94291.00
2023-07-03T10:24:27.196Z,94289.00
2023-07-03T10:25:27.192Z,94287.00
2023-07-03T10:26:27.171Z,94287.00
2023-07-03T10:27:27.292Z,94285.00
2023-07-03T10:28:27.170Z,94283.00
2023-07-03T10:29:27.187Z,94283.00
2023-07-03T10:30:27.151Z,94283.00
2023-07-03T10:31:27.162Z,94281.00
2023-07-03T10:32:27.206Z,94283.00
2023-07-03T10:33:27.124Z,94277.00
2023-07-03T10:34:27.146Z,94277.00
2023-07-03T10:35:27.115Z,94277.00
2023-07-03T10:36:27.111Z,94277.00
2023-07-03T10:37:27.143Z,94279.00
2023-07-03T10:38:27.097Z,94275.00
2023-07-03T10:39:27.083Z,94279.00
2023-07-03T10:40:27.071Z,94277.00
2023-07-03T10:41:27.073Z,94275.00
2023-07-03T10:42:27.081Z,94279.00
2023-07-03T10:43:27.117Z,94277.00
2023-07-03T10:44:27.046Z,94281.00
2023-07-03T10:45:27.058Z,94279.00
2023-07-03T10:46:27.082Z,94279.00
2023-07-03T10:47:27.065Z,94279.00
2023-07-03T10:48:27.043Z,94279.00
2023-07-03T10:49:27.048Z,94277.00
2023-07-03T10:50:27.021Z,94277.00
2023-07-03T10:51:27.026Z,94275.00
2023-07-03T10:52:27.060Z,94281.00
2023-07-03T10:53:27.123Z,94281.00
2023-07-03T10:54:27.131Z,94279.00
2023-07-03T10:55:27.134Z,94279.00
2023-07-03T10:56:27.253Z,94275.00
2023-07-03T10:57:27.220Z,94279.00
2023-07-03T10:58:27.238Z,94275.00
2023-07-03T10:59:27.325Z,94273.00
2023-07-03T11:00:27.282Z,94273.00
2023-07-03T11:01:27.339Z,94273.00
2023-07-03T11:02:27.379Z,94271.00
2023-07-03T11:03:27.463Z,94269.00
2023-07-03T11:04:27.391Z,94269.00
2023-07-03T11:05:27.392Z,94269.00
2023-07-03T11:06:27.425Z,94263.00
2023-07-03T11:07:27.497Z,94265.00
2023-07-03T11:08:27.464Z,94261.00
2023-07-03T11:09:27.498Z,94261.00
2023-07-03T11:10:27.502Z,94263.00
2023-07-03T11:11:27.502Z,94261.00
2023-07-03T11:12:27.600Z,94258.00
2023-07-03T11:13:27.708Z,94259.00
2023-07-03T11:14:27.579Z,94256.00
2023-07-03T11:15:27.676Z,94256.00
2023-07-03T11:16:27.756Z,94254.00
2023-07-03T11:17:27.799Z,94254.00
2023-07-03T11:20:27.759Z,94254.00
2023-07-03T11:23:27.711Z,94250.00
2023-07-03T11:24:27.665Z,94248.00
2023-07-03T11:25:27.648Z,94248.00
2023-07-03T11:28:27.681Z,94246.00
2023-07-03T11:29:27.650Z,94242.00
2023-07-03T11:30:27.620Z,94238.00
2023-07-03T11:31:27.622Z,94238.00
2023-07-03T11:32:27.612Z,94236.00
2023-07-03T11:36:37.599Z,94232.00
2023-07-03T11:37:28.687Z,94238.00
2023-07-03T11:40:27.890Z,94236.00
2023-07-03T11:43:27.570Z,94236.00
2023-07-03T11:44:28.170Z,94230.00
2023-07-03T11:45:27.514Z,94234.00
2023-07-03T11:46:27.547Z,94232.00
2023-07-03T11:47:27.514Z,94234.00
2023-07-03T11:48:27.502Z,94232.00
2023-07-03T11:49:27.488Z,94232.00
2023-07-03T11:50:27.503Z,94234.00
2023-07-03T11:51:27.474Z,94234.00
2023-07-03T11:52:27.528Z,94230.00
2023-07-03T11:53:27.470Z,94230.00
2023-07-03T11:54:27.605Z,94228.00
2023-07-03T11:55:27.467Z,94228.00
2023-07-03T11:56:27.456Z,94222.00
2023-07-03T11:57:27.450Z,94228.00
2023-07-03T11:58:27.422Z,94224.00
2023-07-03T11:59:27.453Z,94220.00
2023-07-03T12:00:27.437Z,94218.00
2023-07-03T12:01:27.434Z,94218.00
2023-07-03T12:02:27.466Z,94224.00
2023-07-03T12:03:27.436Z,94220.00
2023-07-03T12:04:27.416Z,94218.00
2023-07-03T12:05:27.365Z,94216.00
2023-07-03T12:06:27.368Z,94216.00